Time;durP1;ratioP1;P1;durP2;ratioP2;P2;SDS_P1;SDS_P2;PMS_P1;PMS_P2;Temp;Humidity;BMP_temperature;BMP_pressure;BME280_temperature;BME280_humidity;BME280_pressure;Samples;Min_cycle;Max_cycle;Signal;HPM_P1;HPM_P2
2021/03/07 00:02:04;;;;;;;;;;;-2.20;86.00;;;;;;5076120;28;19912;-68
2021/03/07 00:04:30;;;;;;;;;;;-2.00;85.40;;;;;;5094582;28;19912;-68
2021/03/07 00:06:55;;;;;;;;;;;-1.80;84.60;;;;;;5093537;28;19920;-68
2021/03/07 00:09:21;;;;;;;;;;;-1.80;84.50;;;;;;5093017;28;19938;-68
2021/03/07 00:11:46;;;;;;;;;;;-1.50;84.10;;;;;;5087584;28;19916;-68
2021/03/07 00:14:12;;;;;;;;;;;-1.40;83.50;;;;;;5086793;28;19920;-68
2021/03/07 00:16:37;;;;;;;;;;;-1.30;83.20;;;;;;5079883;28;19997;-69
2021/03/07 00:19:03;;;;;;;;;;;-1.20;83.20;;;;;;5077102;28;19916;-67
2021/03/07 00:21:28;;;;;;;;;;;-1.20;83.00;;;;;;5074689;28;19918;-68
2021/03/07 00:23:53;;;;;;;;;;;-1.00;82.80;;;;;;5077763;28;19989;-68
2021/03/07 00:26:19;;;;;;;;;;;-1.00;82.80;;;;;;5085295;28;19916;-68
2021/03/07 00:28:45;;;;;;;;;;;-0.90;82.70;;;;;;5086435;28;19912;-68
2021/03/07 00:31:10;;;;;;;;;;;-0.90;82.60;;;;;;5092626;28;19912;-68
2021/03/07 00:33:36;;;;;;;;;;;-0.80;82.70;;;;;;5084065;28;19985;-67
2021/03/07 00:36:01;;;;;;;;;;;-0.80;82.80;;;;;;5093880;28;19912;-68
2021/03/07 00:38:27;;;;;;;;;;;-0.80;82.80;;;;;;5080358;28;19912;-68
2021/03/07 00:40:52;;;;;;;;;;;-0.70;82.80;;;;;;5093698;28;20320;-69
2021/03/07 00:43:19;;;;;;;;;;;-0.70;82.80;;;;;;5086650;28;19999;-68
2021/03/07 00:45:44;;;;;;;;;;;-0.70;83.20;;;;;;5071851;28;20328;-68
2021/03/07 00:48:10;;;;;;;;;;;-0.70;83.10;;;;;;5084300;28;19912;-67
2021/03/07 00:50:35;;;;;;;;;;;-0.70;82.90;;;;;;5092683;28;19912;-68
2021/03/07 00:53:01;;;;;;;;;;;-0.70;82.90;;;;;;5081160;28;19942;-68
2021/03/07 00:55:26;;;;;;;;;;;-0.70;82.80;;;;;;5089332;28;19916;-68
2021/03/07 00:57:52;;;;;;;;;;;-0.70;82.90;;;;;;5091867;28;19912;-68
2021/03/07 01:00:23;;;;;;;;;;;-0.70;82.90;;;;;;5085820;28;20323;-68
2021/03/07 01:02:48;;;;;;;;;;;-0.80;83.30;;;;;;5078369;28;19925;-68
2021/03/07 01:05:14;;;;;;;;;;;-0.70;83.30;;;;;;5089426;28;19916;-68
2021/03/07 01:07:40;;;;;;;;;;;-0.80;83.20;;;;;;5073865;28;20011;-68
2021/03/07 01:10:15;;;;;;;;;;;-0.80;83.30;;;;;;5082146;28;20270;-68
2021/03/07 01:12:40;;;;;;;;;;;-0.90;83.50;;;;;;5092508;28;19916;-68
2021/03/07 01:15:06;;;;;;;;;;;-1.10;84.00;;;;;;5085691;28;19924;-67
2021/03/07 01:17:32;;;;;;;;;;;-1.20;84.50;;;;;;5076388;28;19916;-68
2021/03/07 01:19:57;;;;;;;;;;;-1.20;85.30;;;;;;5083404;28;19917;-69
2021/03/07 01:22:23;;;;;;;;;;;-1.30;85.10;;;;;;5082042;28;19920;-68
2021/03/07 01:24:48;;;;;;;;;;;-1.40;85.20;;;;;;5081940;28;19912;-68
2021/03/07 01:27:14;;;;;;;;;;;-1.50;85.50;;;;;;5073217;28;19920;-68
2021/03/07 01:29:39;;;;;;;;;;;-1.70;86.10;;;;;;5073331;28;19924;-68
2021/03/07 01:32:05;;;;;;;;;;;-2.00;87.10;;;;;;5090960;28;19938;-68
2021/03/07 01:34:31;;;;;;;;;;;-2.10;87.60;;;;;;5076912;28;20318;-68
2021/03/07 01:36:56;;;;;;;;;;;-2.20;88.20;;;;;;5090080;28;19916;-68
2021/03/07 01:39:22;;;;;;;;;;;-2.30;88.60;;;;;;5078783;28;19909;-68
2021/03/07 01:41:47;;;;;;;;;;;-2.40;88.90;;;;;;5085198;28;20236;-66
2021/03/07 01:44:13;;;;;;;;;;;-2.50;89.30;;;;;;5084666;28;19958;-67
2021/03/07 01:46:38;;;;;;;;;;;-2.60;89.50;;;;;;5075936;28;19924;-66
2021/03/07 01:49:04;;;;;;;;;;;-2.70;90.00;;;;;;5083187;28;19931;-66
2021/03/07 01:51:30;;;;;;;;;;;-2.70;90.30;;;;;;5078765;28;20255;-68
2021/03/07 01:53:55;;;;;;;;;;;-2.80;90.60;;;;;;5082030;28;19930;-68
2021/03/07 01:56:24;;;;;;;;;;;-2.90;90.80;;;;;;5079282;28;19977;-68
2021/03/07 01:58:51;;;;;;;;;;;-3.00;91.50;;;;;;5080723;28;19930;-68
2021/03/07 02:01:17;;;;;;;;;;;-3.10;92.00;;;;;;5079426;28;19921;-68
2021/03/07 02:03:49;;;;;;;;;;;-3.00;92.20;;;;;;5079964;28;19913;-68
2021/03/07 02:06:15;;;;;;;;;;;-3.10;92.20;;;;;;5083572;28;20312;-69
2021/03/07 02:08:40;;;;;;;;;;;-3.10;92.70;;;;;;5086642;28;19952;-68
2021/03/07 02:11:06;;;;;;;;;;;-2.90;92.70;;;;;;5072955;28;19912;-68
2021/03/07 02:13:38;;;;;;;;;;;-2.80;92.40;;;;;;5076827;28;19955;-68
2021/03/07 02:16:06;;;;;;;;;;;-2.50;92.10;;;;;;5087906;28;19931;-67
2021/03/07 02:18:36;;;;;;;;;;;-2.30;91.40;;;;;;5091992;28;19920;-69
2021/03/07 02:21:19;;;;;;;;;;;-2.30;90.90;;;;;;5082281;28;20010;-68
2021/03/07 02:23:54;;;;;;;;;;;-2.40;90.80;;;;;;5080035;28;20011;-68
2021/03/07 02:26:21;;;;;;;;;;;-2.30;91.20;;;;;;5082147;28;19962;-68
2021/03/07 02:28:47;;;;;;;;;;;-2.40;91.30;;;;;;5083080;28;20335;-68
2021/03/07 02:31:14;;;;;;;;;;;-2.30;91.40;;;;;;5085768;28;19956;-68
2021/03/07 02:33:40;;;;;;;;;;;-2.50;91.20;;;;;;5090418;28;19924;-67
2021/03/07 02:36:25;;;;;;;;;;;-2.70;91.60;;;;;;5086348;28;19916;-68
2021/03/07 02:38:51;;;;;;;;;;;-2.60;92.30;;;;;;5090088;28;20381;-68
2021/03/07 02:41:17;;;;;;;;;;;-2.70;92.10;;;;;;5083846;28;19921;-68
2021/03/07 02:43:49;;;;;;;;;;;-2.80;92.20;;;;;;5079509;28;20252;-68
2021/03/07 02:46:15;;;;;;;;;;;-3.00;92.70;;;;;;5087718;28;19950;-68
2021/03/07 02:48:44;;;;;;;;;;;-3.20;93.00;;;;;;5075756;28;19916;-68
2021/03/07 02:51:10;;;;;;;;;;;-3.50;93.40;;;;;;5085987;28;19948;-68
2021/03/07 02:53:37;;;;;;;;;;;-3.60;94.30;;;;;;5084299;28;19919;-68
2021/03/07 02:56:04;;;;;;;;;;;-3.70;94.60;;;;;;5077857;28;19919;-68
2021/03/07 02:58:32;;;;;;;;;;;-3.80;95.00;;;;;;5075585;28;19923;-68
2021/03/07 03:00:58;;;;;;;;;;;-3.80;95.40;;;;;;5079210;28;20325;-68
2021/03/07 03:03:28;;;;;;;;;;;-3.80;95.60;;;;;;5075390;28;19917;-68
2021/03/07 03:05:54;;;;;;;;;;;-3.80;95.80;;;;;;5076410;28;19923;-68
2021/03/07 03:08:21;;;;;;;;;;;-3.50;96.50;;;;;;5075187;28;20313;-68
2021/03/07 03:10:48;;;;;;;;;;;-3.10;96.50;;;;;;5084739;28;20023;-68
2021/03/07 03:13:14;;;;;;;;;;;-2.50;96.10;;;;;;5082201;28;19916;-68
2021/03/07 03:15:40;;;;;;;;;;;-2.30;95.00;;;;;;5080580;28;20352;-68
2021/03/07 03:18:06;;;;;;;;;;;-1.90;94.20;;;;;;5078090;28;20008;-68
2021/03/07 03:20:32;;;;;;;;;;;-1.70;93.10;;;;;;5085041;28;19955;-67
2021/03/07 03:22:57;;;;;;;;;;;-1.50;92.60;;;;;;5087350;28;20008;-68
2021/03/07 03:25:23;;;;;;;;;;;-1.40;92.00;;;;;;5097852;28;20379;-68
2021/03/07 03:27:49;;;;;;;;;;;-1.30;91.40;;;;;;5097236;28;19920;-68
2021/03/07 03:30:16;;;;;;;;;;;-1.30;90.10;;;;;;5095572;28;19912;-67
2021/03/07 03:32:42;;;;;;;;;;;-1.30;89.80;;;;;;5078127;28;19920;-68
2021/03/07 03:35:09;;;;;;;;;;;-1.40;90.60;;;;;;5088978;28;19922;-68
2021/03/07 03:37:35;;;;;;;;;;;-1.20;91.50;;;;;;5096654;28;19919;-68
2021/03/07 03:40:02;;;;;;;;;;;-1.10;91.10;;;;;;5097745;28;19915;-68
2021/03/07 03:42:29;;;;;;;;;;;-1.10;90.80;;;;;;5096405;28;19912;-68
2021/03/07 03:44:56;;;;;;;;;;;-1.20;90.70;;;;;;5078675;28;19948;-68
2021/03/07 03:47:22;;;;;;;;;;;-1.50;90.80;;;;;;5092743;28;20356;-68
2021/03/07 03:49:47;;;;;;;;;;;-1.70;91.30;;;;;;5087121;28;20006;-68
2021/03/07 03:52:14;;;;;;;;;;;-1.90;91.90;;;;;;5096004;28;19954;-69
2021/03/07 03:54:44;;;;;;;;;;;-2.00;92.50;;;;;;5088556;28;19916;-68
2021/03/07 03:57:11;;;;;;;;;;;-2.10;93.10;;;;;;5090959;28;19958;-68
2021/03/07 03:59:37;;;;;;;;;;;-2.00;94.00;;;;;;5093954;28;19912;-68
2021/03/07 04:02:03;;;;;;;;;;;-1.90;94.10;;;;;;5080918;28;20300;-67
2021/03/07 04:04:29;;;;;;;;;;;-1.90;93.20;;;;;;5077406;28;19924;-68
2021/03/07 04:06:55;;;;;;;;;;;-2.00;92.90;;;;;;5077127;28;19951;-68
2021/03/07 04:09:21;;;;;;;;;;;-2.10;93.00;;;;;;5088836;28;20312;-68
2021/03/07 04:11:47;;;;;;;;;;;-2.10;93.40;;;;;;5091473;28;19959;-68
2021/03/07 04:14:14;;;;;;;;;;;-2.10;93.60;;;;;;5095518;28;19912;-68
2021/03/07 04:16:40;;;;;;;;;;;-2.10;93.70;;;;;;5095949;28;19926;-68
2021/03/07 04:19:06;;;;;;;;;;;-2.00;93.60;;;;;;5094676;28;19916;-68
2021/03/07 04:21:32;;;;;;;;;;;-1.90;93.40;;;;;;5092859;28;20281;-68
2021/03/07 04:23:57;;;;;;;;;;;-1.50;92.80;;;;;;5088540;28;19995;-69
2021/03/07 04:26:23;;;;;;;;;;;-1.30;92.00;;;;;;5076617;28;20304;-68
2021/03/07 04:28:49;;;;;;;;;;;-1.10;91.70;;;;;;5082952;28;19931;-68
2021/03/07 04:31:15;;;;;;;;;;;-1.10;91.70;;;;;;5078744;28;19920;-68
2021/03/07 04:33:41;;;;;;;;;;;-0.90;91.50;;;;;;5082116;28;20623;-68
2021/03/07 04:36:07;;;;;;;;;;;-0.80;91.30;;;;;;5095781;28;19923;-66
2021/03/07 04:38:33;;;;;;;;;;;-0.80;91.40;;;;;;5090328;28;19908;-66
2021/03/07 04:40:59;;;;;;;;;;;-0.70;91.60;;;;;;5090369;28;19963;-66
2021/03/07 04:43:25;;;;;;;;;;;-0.70;91.60;;;;;;5077691;28;19948;-66
2021/03/07 04:45:50;;;;;;;;;;;-0.70;91.80;;;;;;5075160;28;19919;-66
2021/03/07 04:48:16;;;;;;;;;;;-0.80;91.10;;;;;;5080493;28;19916;-68
2021/03/07 04:50:41;;;;;;;;;;;-0.90;91.30;;;;;;5092422;28;19916;-69
2021/03/07 04:53:07;;;;;;;;;;;-0.90;91.60;;;;;;5093176;28;19925;-69
2021/03/07 04:55:33;;;;;;;;;;;-1.00;91.00;;;;;;5077682;28;19912;-68
2021/03/07 04:57:58;;;;;;;;;;;-0.90;90.70;;;;;;5082963;28;19924;-68
2021/03/07 05:00:27;;;;;;;;;;;-0.90;90.00;;;;;;5083413;28;20394;-68
2021/03/07 05:02:52;;;;;;;;;;;-0.90;89.80;;;;;;5095051;28;19912;-68
2021/03/07 05:05:18;;;;;;;;;;;-0.90;89.30;;;;;;5085225;28;19962;-67
2021/03/07 05:07:43;;;;;;;;;;;-0.80;89.60;;;;;;5076406;28;19916;-67
2021/03/07 05:10:09;;;;;;;;;;;-0.70;89.30;;;;;;5090992;28;19908;-68
2021/03/07 05:12:35;;;;;;;;;;;-0.70;89.40;;;;;;5078803;28;20022;-68
2021/03/07 05:15:00;;;;;;;;;;;-0.70;89.70;;;;;;5080769;28;19920;-67
2021/03/07 05:17:27;;;;;;;;;;;-0.70;90.20;;;;;;5086586;28;19916;-66
2021/03/07 05:19:53;;;;;;;;;;;-0.80;90.00;;;;;;5089391;28;19961;-67
2021/03/07 05:22:18;;;;;;;;;;;-0.90;90.10;;;;;;5091585;28;19916;-68
2021/03/07 05:24:44;;;;;;;;;;;-0.70;90.30;;;;;;5083313;28;19998;-67
2021/03/07 05:27:09;;;;;;;;;;;-0.80;89.70;;;;;;5075927;28;19913;-68
2021/03/07 05:29:35;;;;;;;;;;;-0.80;89.80;;;;;;5081677;28;19912;-68
2021/03/07 05:32:01;;;;;;;;;;;-0.90;89.90;;;;;;5074828;28;20001;-67
2021/03/07 05:34:27;;;;;;;;;;;-1.00;89.90;;;;;;5080521;28;19916;-68
2021/03/07 05:36:53;;;;;;;;;;;-1.00;90.20;;;;;;5084504;28;19999;-68
2021/03/07 05:39:18;;;;;;;;;;;-1.10;90.30;;;;;;5095064;28;20310;-68
2021/03/07 05:41:44;;;;;;;;;;;-1.10;90.50;;;;;;5094705;28;20293;-68
2021/03/07 05:44:09;;;;;;;;;;;-1.10;90.40;;;;;;5086348;28;20336;-68
2021/03/07 05:46:36;;;;;;;;;;;-1.20;89.90;;;;;;5079704;28;19923;-68
2021/03/07 05:49:03;;;;;;;;;;;-1.20;91.20;;;;;;5096765;28;19938;-68
2021/03/07 05:51:29;;;;;;;;;;;-0.90;93.00;;;;;;5084464;28;19919;-66
2021/03/07 05:53:55;;;;;;;;;;;-0.50;93.50;;;;;;5084649;28;19912;-68
2021/03/07 05:56:21;;;;;;;;;;;-0.20;92.00;;;;;;5095399;28;19951;-67
2021/03/07 05:58:49;;;;;;;;;;;0.00;92.00;;;;;;5080529;28;19948;-67
2021/03/07 06:01:14;;;;;;;;;;;0.10;91.10;;;;;;5085672;28;19912;-68
2021/03/07 06:03:40;;;;;;;;;;;0.30;91.10;;;;;;5095864;28;19977;-68
2021/03/07 06:06:05;;;;;;;;;;;0.40;90.80;;;;;;5079996;28;20055;-67
2021/03/07 06:08:31;;;;;;;;;;;0.60;90.30;;;;;;5098230;28;20326;-67
2021/03/07 06:10:57;;;;;;;;;;;0.60;90.00;;;;;;5083993;28;19913;-67
2021/03/07 06:13:22;;;;;;;;;;;0.60;90.00;;;;;;5086991;28;19925;-67
2021/03/07 06:15:49;;;;;;;;;;;0.50;90.40;;;;;;5088704;28;19931;-68
2021/03/07 06:18:18;;;;;;;;;;;0.50;90.80;;;;;;5082003;28;19916;-67
2021/03/07 06:20:44;;;;;;;;;;;0.40;90.90;;;;;;5079397;28;19913;-67
2021/03/07 06:23:10;;;;;;;;;;;0.50;91.20;;;;;;5087373;28;19912;-68
2021/03/07 06:25:49;;;;;;;;;;;0.50;90.80;;;;;;5079989;28;19919;-66
2021/03/07 06:28:18;;;;;;;;;;;0.40;91.00;;;;;;5088360;28;20273;-68
2021/03/07 06:30:44;;;;;;;;;;;0.50;91.70;;;;;;5088643;28;19917;-67
2021/03/07 06:33:10;;;;;;;;;;;0.60;91.90;;;;;;5085996;28;19938;-68
2021/03/07 06:35:35;;;;;;;;;;;0.80;91.30;;;;;;5080146;28;20003;-67
2021/03/07 06:38:05;;;;;;;;;;;0.90;91.20;;;;;;5094005;28;20380;-67
2021/03/07 06:40:32;;;;;;;;;;;0.90;91.00;;;;;;5098352;28;20274;-68
2021/03/07 06:42:59;;;;;;;;;;;1.00;91.10;;;;;;5088216;28;19982;-67
2021/03/07 06:45:34;;;;;;;;;;;1.00;91.00;;;;;;5083661;28;19920;-67
2021/03/07 06:48:00;;;;;;;;;;;1.10;91.10;;;;;;5091098;28;20015;-67
2021/03/07 06:50:25;;;;;;;;;;;1.10;90.80;;;;;;5098105;28;19958;-67
2021/03/07 06:52:59;;;;;;;;;;;1.10;90.70;;;;;;5098236;28;19915;-67
2021/03/07 06:55:26;;;;;;;;;;;1.10;91.00;;;;;;5082701;28;19913;-67
2021/03/07 06:57:51;;;;;;;;;;;1.20;91.00;;;;;;5093734;28;19916;-67
2021/03/07 07:00:32;;;;;;;;;;;1.20;91.20;;;;;;5077710;28;19912;-68
2021/03/07 07:03:24;;;;;;;;;;;1.20;91.20;;;;;;5078240;28;19916;-68
2021/03/07 07:05:54;;;;;;;;;;;1.20;91.10;;;;;;5079918;28;19916;-67
2021/03/07 07:08:38;;;;;;;;;;;1.10;89.90;;;;;;5078010;28;20348;-67
2021/03/07 07:11:06;;;;;;;;;;;0.90;88.20;;;;;;5091411;28;19912;-67
2021/03/07 07:13:40;;;;;;;;;;;0.80;88.50;;;;;;5085422;28;19947;-67
2021/03/07 07:16:07;;;;;;;;;;;0.80;88.30;;;;;;5089119;28;19928;-67
2021/03/07 07:18:34;;;;;;;;;;;0.80;88.30;;;;;;5094245;28;20276;-67
2021/03/07 07:21:00;;;;;;;;;;;0.70;87.50;;;;;;5079941;28;19913;-68
2021/03/07 07:23:26;;;;;;;;;;;0.60;86.50;;;;;;5083275;28;20308;-67
2021/03/07 07:25:52;;;;;;;;;;;0.50;86.80;;;;;;5097603;28;20003;-67
2021/03/07 07:28:18;;;;;;;;;;;0.40;87.00;;;;;;5096309;28;19920;-67
2021/03/07 07:31:01;;;;;;;;;;;0.40;86.90;;;;;;5096049;28;19912;-66
2021/03/07 07:33:45;;;;;;;;;;;0.30;86.60;;;;;;5089717;28;19956;-66
2021/03/07 07:36:24;;;;;;;;;;;0.30;86.20;;;;;;5080616;28;19920;-66
2021/03/07 07:38:52;;;;;;;;;;;0.20;86.00;;;;;;5093207;28;19927;-64
2021/03/07 07:41:35;;;;;;;;;;;0.20;85.80;;;;;;5090358;28;20304;-67
2021/03/07 07:44:01;;;;;;;;;;;0.30;85.90;;;;;;5096303;28;20011;-67
2021/03/07 07:46:27;;;;;;;;;;;0.50;85.60;;;;;;5088444;28;19916;-67
2021/03/07 07:48:53;;;;;;;;;;;0.60;85.20;;;;;;5094676;28;19908;-67
2021/03/07 07:51:29;;;;;;;;;;;0.60;84.70;;;;;;5076965;28;19923;-67
2021/03/07 07:53:55;;;;;;;;;;;0.70;85.20;;;;;;5086826;28;20344;-67
2021/03/07 07:56:33;;;;;;;;;;;0.70;85.00;;;;;;5077274;28;19943;-67
2021/03/07 07:58:58;;;;;;;;;;;0.70;84.80;;;;;;5077243;28;19913;-67
2021/03/07 08:01:43;;;;;;;;;;;0.80;84.80;;;;;;5078913;28;19959;-67
2021/03/07 08:04:27;;;;;;;;;;;0.90;84.20;;;;;;5081379;28;19920;-68
2021/03/07 08:06:52;;;;;;;;;;;1.20;83.80;;;;;;5076864;28;19916;-67
2021/03/07 08:09:33;;;;;;;;;;;1.40;83.30;;;;;;5075626;28;19916;-67
2021/03/07 08:11:58;;;;;;;;;;;1.60;82.50;;;;;;5093888;28;19938;-67
2021/03/07 08:14:33;;;;;;;;;;;1.90;82.10;;;;;;5091838;28;19916;-67
2021/03/07 08:16:59;;;;;;;;;;;2.00;81.00;;;;;;5076483;28;19916;-67
2021/03/07 08:19:54;;;;;;;;;;;1.90;80.50;;;;;;5076913;28;19919;-67
2021/03/07 08:22:19;;;;;;;;;;;1.80;80.30;;;;;;5067751;28;19915;-67
2021/03/07 08:24:52;;;;;;;;;;;1.90;80.70;;;;;;5078839;28;19944;-67
2021/03/07 08:27:30;;;;;;;;;;;2.30;80.00;;;;;;5097014;28;19912;-67
2021/03/07 08:29:56;;;;;;;;;;;3.60;77.30;;;;;;5096340;28;19999;-67
2021/03/07 08:32:26;;;;;;;;;;;4.70;73.50;;;;;;5095537;28;20003;-68
2021/03/07 08:34:52;;;;;;;;;;;5.50;71.90;;;;;;5095322;28;19912;-68
2021/03/07 08:37:17;;;;;;;;;;;6.50;68.70;;;;;;5076645;28;19908;-67
2021/03/07 08:39:43;;;;;;;;;;;7.10;67.20;;;;;;5083948;28;19935;-67
2021/03/07 08:42:09;;;;;;;;;;;7.70;66.50;;;;;;5113472;28;20211;-67
2021/03/07 08:44:34;;;;;;;;;;;8.30;64.50;;;;;;5113113;28;19915;-67
2021/03/07 08:47:00;;;;;;;;;;;8.70;64.10;;;;;;5083696;28;19916;-68
2021/03/07 08:49:30;;;;;;;;;;;8.60;62.50;;;;;;5092473;28;19920;-67
2021/03/07 08:51:59;;;;;;;;;;;8.20;63.50;;;;;;5096019;28;20508;-67
2021/03/07 08:54:27;;;;;;;;;;;8.60;64.20;;;;;;5096453;28;19919;-67
2021/03/07 08:56:53;;;;;;;;;;;9.30;62.60;;;;;;5095220;28;20010;-66
2021/03/07 08:59:24;;;;;;;;;;;9.30;61.70;;;;;;5096541;28;20022;-67
2021/03/07 09:01:49;;;;;;;;;;;9.00;61.90;;;;;;5093165;28;19913;-67
2021/03/07 09:04:15;;;;;;;;;;;8.80;63.10;;;;;;5087754;28;19918;-66
2021/03/07 09:06:43;;;;;;;;;;;8.60;63.30;;;;;;5089332;28;19917;-66
2021/03/07 09:09:19;;;;;;;;;;;8.20;64.40;;;;;;5084887;28;19912;-65
2021/03/07 09:11:46;;;;;;;;;;;7.40;65.80;;;;;;5082489;28;19912;-66
2021/03/07 09:14:12;;;;;;;;;;;6.70;67.80;;;;;;5081297;28;19912;-65
2021/03/07 09:16:39;;;;;;;;;;;6.30;68.90;;;;;;5086331;28;19998;-66
2021/03/07 09:19:22;;;;;;;;;;;5.80;70.80;;;;;;5084584;28;20050;-67
2021/03/07 09:22:06;;;;;;;;;;;5.70;72.20;;;;;;5088267;28;19916;-66
2021/03/07 09:24:32;;;;;;;;;;;6.00;71.80;;;;;;5095604;28;19908;-65
2021/03/07 09:27:27;;;;;;;;;;;6.30;71.10;;;;;;5093351;28;20166;-65
2021/03/07 09:29:53;;;;;;;;;;;6.20;70.90;;;;;;5074435;28;19912;-66
2021/03/07 09:32:28;;;;;;;;;;;6.30;71.70;;;;;;5075149;28;19913;-66
2021/03/07 09:34:53;;;;;;;;;;;6.40;70.90;;;;;;5094503;28;19922;-66
2021/03/07 09:37:19;;;;;;;;;;;6.60;70.30;;;;;;5085184;28;19916;-68
2021/03/07 09:39:46;;;;;;;;;;;6.80;70.70;;;;;;5086866;28;19916;-65
2021/03/07 09:42:11;;;;;;;;;;;6.80;69.70;;;;;;5086186;28;19916;-66
2021/03/07 09:44:37;;;;;;;;;;;6.70;70.20;;;;;;5085151;28;20324;-66
2021/03/07 09:47:02;;;;;;;;;;;6.40;70.90;;;;;;5074735;28;19970;-67
2021/03/07 09:49:28;;;;;;;;;;;6.10;72.10;;;;;;5090317;28;19916;-66
2021/03/07 09:51:54;;;;;;;;;;;5.90;72.90;;;;;;5082636;28;19917;-65
2021/03/07 09:54:20;;;;;;;;;;;5.80;72.90;;;;;;5084180;28;20265;-66
2021/03/07 09:56:46;;;;;;;;;;;5.70;73.70;;;;;;5091103;28;19920;-66
2021/03/07 09:59:16;;;;;;;;;;;5.70;73.60;;;;;;5093405;28;20002;-66
2021/03/07 10:01:41;;;;;;;;;;;6.20;73.50;;;;;;5074366;28;20229;-66
2021/03/07 10:04:23;;;;;;;;;;;7.00;72.00;;;;;;5091626;28;19926;-66
2021/03/07 10:06:48;;;;;;;;;;;7.50;70.40;;;;;;5077453;28;19916;-67
2021/03/07 10:09:14;;;;;;;;;;;8.30;69.70;;;;;;5092988;28;20345;-66
2021/03/07 10:11:39;;;;;;;;;;;9.10;67.20;;;;;;5095808;28;19924;-66
2021/03/07 10:14:05;;;;;;;;;;;9.80;65.50;;;;;;5079711;28;19913;-66
2021/03/07 10:16:33;;;;;;;;;;;10.20;65.00;;;;;;5082858;28;19924;-67
2021/03/07 10:19:08;;;;;;;;;;;10.80;63.70;;;;;;5080506;28;19919;-66
2021/03/07 10:21:34;;;;;;;;;;;11.30;62.50;;;;;;5084498;28;20150;-66
2021/03/07 10:24:07;;;;;;;;;;;11.50;62.10;;;;;;5081718;28;19923;-65
2021/03/07 10:26:35;;;;;;;;;;;12.40;60.60;;;;;;5084555;28;20208;-64
2021/03/07 10:29:00;;;;;;;;;;;12.50;59.80;;;;;;5078253;28;19951;-65
2021/03/07 10:31:26;;;;;;;;;;;11.60;61.40;;;;;;5086278;28;20017;-65
2021/03/07 10:33:54;;;;;;;;;;;10.40;64.00;;;;;;5093474;28;20384;-65
2021/03/07 10:36:20;;;;;;;;;;;9.60;66.50;;;;;;5085030;28;20233;-67
2021/03/07 10:38:45;;;;;;;;;;;9.00;68.00;;;;;;5099138;28;20294;-67
2021/03/07 10:41:18;;;;;;;;;;;8.70;69.60;;;;;;5098398;28;19948;-67
2021/03/07 10:43:48;;;;;;;;;;;8.50;70.00;;;;;;5093022;28;19916;-67
2021/03/07 10:46:32;;;;;;;;;;;8.20;71.00;;;;;;5086177;28;19978;-66
2021/03/07 10:48:58;;;;;;;;;;;8.20;71.50;;;;;;5094392;28;19913;-67
2021/03/07 10:51:24;;;;;;;;;;;8.60;71.10;;;;;;5087330;28;19919;-66
2021/03/07 10:53:53;;;;;;;;;;;8.90;71.80;;;;;;5084370;28;19916;-67
2021/03/07 10:56:19;;;;;;;;;;;9.10;70.00;;;;;;5088163;28;20008;-66
2021/03/07 10:58:44;;;;;;;;;;;8.60;71.20;;;;;;5089998;28;20007;-67
2021/03/07 11:01:14;;;;;;;;;;;8.10;72.80;;;;;;5093665;28;20010;-67
2021/03/07 11:03:39;;;;;;;;;;;7.70;75.10;;;;;;5089154;28;20425;-68
2021/03/07 11:06:05;;;;;;;;;;;8.20;74.60;;;;;;5095865;28;20011;-68
2021/03/07 11:08:31;;;;;;;;;;;9.20;72.60;;;;;;5091495;28;20011;-67
2021/03/07 11:10:56;;;;;;;;;;;10.00;69.80;;;;;;5088709;28;19927;-68
2021/03/07 11:13:22;;;;;;;;;;;10.80;68.10;;;;;;5078291;28;19920;-67
2021/03/07 11:15:47;;;;;;;;;;;11.70;66.30;;;;;;5076751;28;19928;-67
2021/03/07 11:18:13;;;;;;;;;;;11.80;64.90;;;;;;5085539;28;19916;-67
2021/03/07 11:20:38;;;;;;;;;;;12.00;64.20;;;;;;5096261;28;19918;-67
2021/03/07 11:23:04;;;;;;;;;;;12.00;63.00;;;;;;5086068;28;20260;-67
2021/03/07 11:25:29;;;;;;;;;;;12.30;63.10;;;;;;5078011;28;19991;-66
2021/03/07 11:27:55;;;;;;;;;;;12.60;62.60;;;;;;5084002;28;19935;-67
2021/03/07 11:30:21;;;;;;;;;;;12.90;61.40;;;;;;5082939;28;20293;-67
2021/03/07 11:32:46;;;;;;;;;;;13.20;60.60;;;;;;5077943;28;19938;-68
2021/03/07 11:35:12;;;;;;;;;;;13.10;60.60;;;;;;5077903;28;19913;-67
2021/03/07 11:37:37;;;;;;;;;;;13.40;61.10;;;;;;5083189;28;19912;-67
2021/03/07 11:40:04;;;;;;;;;;;14.00;59.20;;;;;;5084768;28;20026;-67
2021/03/07 11:42:29;;;;;;;;;;;14.30;58.50;;;;;;5082013;28;19948;-67
2021/03/07 11:44:55;;;;;;;;;;;14.40;57.70;;;;;;5077598;28;19955;-68
2021/03/07 11:47:20;;;;;;;;;;;14.80;58.10;;;;;;5078378;28;19912;-67
2021/03/07 11:49:46;;;;;;;;;;;15.10;56.80;;;;;;5079801;28;19923;-67
2021/03/07 11:52:11;;;;;;;;;;;15.20;55.70;;;;;;5086249;28;19908;-67
2021/03/07 11:54:37;;;;;;;;;;;14.60;57.00;;;;;;5082421;28;20352;-67
2021/03/07 11:57:03;;;;;;;;;;;14.70;56.70;;;;;;5086740;28;19934;-67
2021/03/07 11:59:30;;;;;;;;;;;14.70;56.90;;;;;;5091684;28;19912;-66
2021/03/07 12:01:55;;;;;;;;;;;14.50;58.00;;;;;;5091224;28;20002;-67
2021/03/07 12:04:21;;;;;;;;;;;14.70;57.70;;;;;;5091083;28;20042;-67
2021/03/07 12:06:47;;;;;;;;;;;14.80;56.90;;;;;;5096967;28;20023;-66
2021/03/07 12:09:12;;;;;;;;;;;14.40;57.30;;;;;;5080679;28;19965;-67
2021/03/07 12:11:38;;;;;;;;;;;13.20;59.50;;;;;;5079548;28;19912;-67
2021/03/07 12:14:03;;;;;;;;;;;12.90;61.00;;;;;;5089365;28;19918;-66
2021/03/07 12:16:29;;;;;;;;;;;13.40;59.20;;;;;;5079014;28;19920;-66
2021/03/07 12:18:54;;;;;;;;;;;13.70;59.00;;;;;;5084867;28;19955;-66
2021/03/07 12:21:20;;;;;;;;;;;14.10;57.90;;;;;;5078733;28;19917;-67
2021/03/07 12:23:46;;;;;;;;;;;14.20;58.40;;;;;;5074974;28;19920;-66
2021/03/07 12:26:11;;;;;;;;;;;13.90;58.30;;;;;;5076002;28;19923;-67
2021/03/07 12:28:37;;;;;;;;;;;13.30;60.00;;;;;;5078909;28;20378;-66
2021/03/07 12:31:02;;;;;;;;;;;13.00;60.60;;;;;;5076538;28;19912;-66
2021/03/07 12:33:28;;;;;;;;;;;13.30;60.20;;;;;;5089482;28;19977;-67
2021/03/07 12:35:53;;;;;;;;;;;13.40;60.60;;;;;;5078156;28;19985;-66
2021/03/07 12:38:19;;;;;;;;;;;13.40;59.60;;;;;;5073987;28;19981;-66
2021/03/07 12:40:45;;;;;;;;;;;13.30;59.80;;;;;;5081566;28;19916;-65
2021/03/07 12:43:10;;;;;;;;;;;13.70;58.40;;;;;;5074019;28;20018;-67
2021/03/07 12:45:36;;;;;;;;;;;13.70;59.80;;;;;;5077493;28;19918;-66
2021/03/07 12:48:01;;;;;;;;;;;13.90;58.80;;;;;;5073695;28;19912;-66
2021/03/07 12:50:27;;;;;;;;;;;14.00;58.00;;;;;;5081557;28;19946;-65
2021/03/07 12:52:52;;;;;;;;;;;13.70;58.00;;;;;;5089982;28;20381;-67
2021/03/07 12:55:18;;;;;;;;;;;13.40;59.00;;;;;;5076560;28;19913;-66
2021/03/07 12:57:44;;;;;;;;;;;13.50;59.50;;;;;;5077625;28;19935;-66
2021/03/07 13:00:09;;;;;;;;;;;13.60;59.20;;;;;;5090487;28;19916;-66
2021/03/07 13:02:36;;;;;;;;;;;13.50;59.10;;;;;;5093926;28;19919;-65
2021/03/07 13:05:02;;;;;;;;;;;13.20;59.40;;;;;;5086262;28;19916;-65
2021/03/07 13:07:28;;;;;;;;;;;13.00;59.80;;;;;;5093176;28;20309;-66
2021/03/07 13:09:53;;;;;;;;;;;12.80;60.00;;;;;;5093372;28;19968;-65
2021/03/07 13:12:19;;;;;;;;;;;12.80;59.60;;;;;;5090867;28;19974;-66
2021/03/07 13:14:45;;;;;;;;;;;12.90;60.10;;;;;;5084234;28;19923;-66
2021/03/07 13:17:10;;;;;;;;;;;12.10;60.40;;;;;;5078038;28;19997;-66
2021/03/07 13:19:37;;;;;;;;;;;12.20;63.30;;;;;;5076120;28;20216;-66
2021/03/07 13:22:03;;;;;;;;;;;12.50;61.90;;;;;;5077813;28;19974;-64
2021/03/07 13:24:29;;;;;;;;;;;12.50;61.20;;;;;;5073395;28;19923;-65
2021/03/07 13:26:54;;;;;;;;;;;12.20;60.50;;;;;;5087917;28;20201;-64
2021/03/07 13:29:20;;;;;;;;;;;12.20;63.30;;;;;;5076951;28;19916;-66
2021/03/07 13:31:45;;;;;;;;;;;12.30;62.00;;;;;;5073209;28;19912;-67
2021/03/07 13:34:11;;;;;;;;;;;12.40;61.90;;;;;;5072838;28;19952;-67
2021/03/07 13:36:36;;;;;;;;;;;12.50;61.30;;;;;;5074510;28;19916;-67
2021/03/07 13:39:02;;;;;;;;;;;12.20;61.90;;;;;;5093260;28;19915;-67
2021/03/07 13:41:28;;;;;;;;;;;12.20;62.10;;;;;;5090742;28;20586;-68
2021/03/07 13:43:54;;;;;;;;;;;12.30;61.50;;;;;;5079990;28;19913;-67
2021/03/07 13:46:19;;;;;;;;;;;12.70;60.80;;;;;;5077806;28;20317;-66
2021/03/07 13:48:45;;;;;;;;;;;12.70;60.00;;;;;;5084989;28;19920;-67
2021/03/07 13:51:11;;;;;;;;;;;12.40;60.80;;;;;;5074994;28;19924;-66
2021/03/07 13:53:37;;;;;;;;;;;12.20;60.90;;;;;;5085051;28;20619;-65
2021/03/07 13:56:03;;;;;;;;;;;11.90;62.00;;;;;;5089026;28;19956;-66
2021/03/07 13:58:28;;;;;;;;;;;11.10;62.80;;;;;;5086377;28;19999;-67
2021/03/07 14:00:54;;;;;;;;;;;10.40;64.20;;;;;;5074479;28;19912;-66
2021/03/07 14:03:20;;;;;;;;;;;10.10;65.60;;;;;;5082528;28;20223;-66
2021/03/07 14:05:45;;;;;;;;;;;10.10;66.40;;;;;;5089781;28;19950;-66
2021/03/07 14:08:11;;;;;;;;;;;10.00;66.60;;;;;;5082300;28;19920;-66
2021/03/07 14:10:37;;;;;;;;;;;9.80;67.30;;;;;;5090917;28;19947;-66
2021/03/07 14:13:03;;;;;;;;;;;9.70;67.20;;;;;;5084587;28;20314;-67
2021/03/07 14:15:28;;;;;;;;;;;9.80;67.00;;;;;;5095148;28;20029;-67
2021/03/07 14:17:54;;;;;;;;;;;9.70;67.00;;;;;;5099576;28;19919;-66
2021/03/07 14:20:19;;;;;;;;;;;9.70;66.90;;;;;;5097810;28;19934;-67
2021/03/07 14:22:45;;;;;;;;;;;9.40;67.00;;;;;;5086337;28;19912;-66